Time;durP1;ratioP1;P1;durP2;ratioP2;P2;SDS_P1;SDS_P2;PMS_P1;PMS_P2;Temp;Humidity;BMP_temperature;BMP_pressure;BME280_temperature;BME280_humidity;BME280_pressure;Samples;Min_cycle;Max_cycle;Signal;HPM_P1;HPM_P2
2022/09/05 03:51:35;;;;;;;5.43;5.13;;;;;;;;;;6291422;22;20455;-89
2022/09/05 03:54:38;;;;;;;5.43;5.33;;;;;;;;;;6275454;22;20412;-90
2022/09/05 04:06:51;;;;;;;;;;;;;;;;;;;;;
2022/09/05 04:09:37;;;;;;;6.10;5.73;;;;;;;;;;6320438;22;20926;-91
2022/09/05 04:58:41;;;;;;;;;;;;;;;;;;;;;
2022/09/05 05:06:49;;;;;;;6.67;6.20;;;;;;;;;;6240211;22;20452;-89
2022/09/05 05:09:51;;;;;;;6.30;6.00;;;;;;;;;;6274809;22;20399;-90
2022/09/05 05:12:35;;;;;;;5.70;5.40;;;;;;;;;;6154182;23;20443;-90
2022/09/05 05:15:22;;;;;;;6.90;6.60;;;;;;;;;;6223446;22;20448;-91
2022/09/05 05:21:34;;;;;;;6.37;6.00;;;;;;;;;;6282605;22;20539;-90
2022/09/05 05:24:32;;;;;;;7.13;6.67;;;;;;;;;;6148640;23;20388;-90
2022/09/05 05:27:38;;;;;;;7.70;7.00;;;;;;;;;;6172759;23;20474;-89
2022/09/05 05:36:29;;;;;;;7.47;6.77;;;;;;;;;;6264093;22;20453;-91
2022/09/05 05:39:07;;;;;;;6.90;6.40;;;;;;;;;;6232064;23;20738;-91
2022/09/05 05:42:03;;;;;;;6.97;6.53;;;;;;;;;;6232459;23;20387;-89
2022/09/05 05:44:36;;;;;;;7.07;6.63;;;;;;;;;;6236065;23;20409;-90
2022/09/05 05:47:06;;;;;;;6.90;6.40;;;;;;;;;;6262504;23;20389;-91
2022/09/05 05:49:41;;;;;;;7.80;7.00;;;;;;;;;;6239286;22;20390;-91
2022/09/05 05:52:07;;;;;;;7.57;6.97;;;;;;;;;;6207687;23;20420;-91
2022/09/05 05:54:51;;;;;;;8.67;6.33;;;;;;;;;;6207284;23;20402;-91
2022/09/05 05:57:39;;;;;;;6.70;6.10;;;;;;;;;;6211601;23;20406;-92
2022/09/05 06:00:28;;;;;;;7.83;6.10;;;;;;;;;;6208125;23;20444;-91
2022/09/05 06:03:03;;;;;;;7.23;6.63;;;;;;;;;;6205375;23;20886;-92
2022/09/05 06:05:44;;;;;;;5.77;5.27;;;;;;;;;;6202431;23;20390;-91
2022/09/05 06:08:27;;;;;;;10.93;6.77;;;;;;;;;;6200974;23;20480;-92
2022/09/05 06:11:13;;;;;;;5.97;5.47;;;;;;;;;;6203102;23;20383;-91
2022/09/05 06:14:27;;;;;;;5.77;5.37;;;;;;;;;;6208273;23;21133;-90
2022/09/05 06:17:22;;;;;;;5.27;5.17;;;;;;;;;;6209126;23;20410;-93
2022/09/05 06:20:07;;;;;;;5.63;4.97;;;;;;;;;;6204567;23;20470;-93
2022/09/05 06:22:55;;;;;;;;;;;;;;;;;;;;;
2022/09/05 06:32:08;;;;;;;5.80;5.40;;;;;;;;;;6160181;23;20412;-93
2022/09/05 06:34:57;;;;;;;4.53;4.30;;;;;;;;;;6241359;23;20437;-91
2022/09/05 06:37:54;;;;;;;4.50;4.30;;;;;;;;;;6263112;23;20412;-89
2022/09/05 06:52:04;;;;;;;4.90;4.60;;;;;;;;;;6250528;22;20437;-93
2022/09/05 06:56:51;;;;;;;4.50;4.13;;;;;;;;;;6273693;22;20869;-89
2022/09/05 06:59:36;;;;;;;4.27;4.00;;;;;;;;;;6250692;22;20380;-89
2022/09/05 07:02:07;;;;;;;4.30;4.00;;;;;;;;;;6248021;22;20403;-92
2022/09/05 07:04:39;;;;;;;8.13;5.47;;;;;;;;;;6250098;22;21324;-91
2022/09/05 07:07:21;;;;;;;4.13;3.60;;;;;;;;;;6250218;22;20381;-89
2022/09/05 07:09:47;;;;;;;4.23;3.93;;;;;;;;;;6274022;22;20418;-92
2022/09/05 07:12:19;;;;;;;3.50;3.40;;;;;;;;;;6253638;22;20393;-94
2022/09/05 07:15:07;;;;;;;3.73;3.50;;;;;;;;;;6241374;22;20478;-92
2022/09/05 07:17:34;;;;;;;4.03;3.70;;;;;;;;;;6248869;22;20999;-92
2022/09/05 07:20:02;;;;;;;4.07;3.97;;;;;;;;;;6248697;22;20711;-89
2022/09/05 07:22:33;;;;;;;3.40;3.20;;;;;;;;;;6279085;22;20361;-92
2022/09/05 07:28:02;;;;;;;3.50;3.40;;;;;;;;;;6279045;22;20472;-91
2022/09/05 07:30:29;;;;;;;3.57;3.57;;;;;;;;;;6254054;22;20392;-90
2022/09/05 07:32:59;;;;;;;4.70;4.40;;;;;;;;;;6283596;22;20369;-92
2022/09/05 07:35:28;;;;;;;3.37;3.27;;;;;;;;;;6249877;22;20988;-93
2022/09/05 07:38:14;;;;;;;3.40;3.20;;;;;;;;;;6279361;22;20372;-94
2022/09/05 07:40:48;;;;;;;3.47;3.17;;;;;;;;;;6249690;22;20452;-91
2022/09/05 07:43:24;;;;;;;3.30;3.20;;;;;;;;;;6253263;22;20384;-93
2022/09/05 07:46:17;;;;;;;3.50;3.30;;;;;;;;;;6251330;22;20376;-94
2022/09/05 07:48:58;;;;;;;4.00;3.30;;;;;;;;;;6234555;23;20436;-91
2022/09/05 07:51:32;;;;;;;3.03;2.93;;;;;;;;;;6262926;23;20408;-89
2022/09/05 07:54:03;;;;;;;7.67;3.70;;;;;;;;;;6231611;23;20372;-88
2022/09/05 07:56:47;;;;;;;3.20;3.10;;;;;;;;;;6230059;23;20455;-90
2022/09/05 07:59:16;;;;;;;3.87;3.63;;;;;;;;;;6231580;23;20396;-92
2022/09/05 08:01:50;;;;;;;3.17;3.03;;;;;;;;;;6227693;23;20386;-91
2022/09/05 08:04:38;;;;;;;3.03;2.97;;;;;;;;;;6265593;23;20430;-90
2022/09/05 08:07:12;;;;;;;3.67;3.47;;;;;;;;;;6236412;23;20465;-94
2022/09/05 08:09:43;;;;;;;3.37;3.17;;;;;;;;;;6232409;23;20484;-93
2022/09/05 08:12:27;;;;;;;2.93;2.80;;;;;;;;;;6234931;23;20470;-89
2022/09/05 08:15:26;;;;;;;9.73;3.70;;;;;;;;;;6231544;23;20370;-89
2022/09/05 08:18:18;;;;;;;2.97;2.90;;;;;;;;;;6195212;23;20366;-92
2022/09/05 08:21:06;;;;;;;3.77;2.70;;;;;;;;;;6236447;23;20444;-92
2022/09/05 08:23:56;;;;;;;3.20;2.90;;;;;;;;;;6239843;23;20370;-96
2022/09/05 08:26:40;;;;;;;2.40;2.30;;;;;;;;;;6242975;23;20393;-94
2022/09/05 08:29:25;;;;;;;2.80;2.47;;;;;;;;;;6236343;23;20497;-94
2022/09/05 08:34:46;;;;;;;2.97;2.70;;;;;;;;;;6286905;22;20443;-91
2022/09/05 08:37:31;;;;;;;2.60;2.60;;;;;;;;;;6268920;22;20408;-94
2022/09/05 08:40:17;;;;;;;2.30;2.20;;;;;;;;;;6273084;22;20428;-89
2022/09/05 08:43:02;;;;;;;2.20;2.10;;;;;;;;;;6257415;22;20704;-90
2022/09/05 08:45:32;;;;;;;2.30;2.13;;;;;;;;;;6270382;22;20411;-93
2022/09/05 08:48:17;;;;;;;2.40;2.30;;;;;;;;;;6270116;22;20477;-94
2022/09/05 08:51:01;;;;;;;3.00;2.83;;;;;;;;;;6298719;22;20384;-90
2022/09/05 08:59:18;;;;;;;;;;;;;;;;;;;;;
2022/09/05 09:04:49;;;;;;;2.53;2.43;;;;;;;;;;6274873;22;20509;-92
2022/09/05 09:07:25;;;;;;;2.00;1.93;;;;;;;;;;6255747;22;20404;-92
2022/09/05 09:09:58;;;;;;;2.37;2.27;;;;;;;;;;6257399;22;20389;-91
2022/09/05 09:12:43;;;;;;;2.10;2.10;;;;;;;;;;6258321;22;20608;-92
2022/09/05 09:15:15;;;;;;;3.03;1.90;;;;;;;;;;6281637;22;20493;-88
2022/09/05 09:17:46;;;;;;;4.07;2.17;;;;;;;;;;6270699;22;20391;-88
2022/09/05 09:20:22;;;;;;;1.90;1.90;;;;;;;;;;6272244;22;20369;-91
2022/09/05 09:22:50;;;;;;;3.43;2.10;;;;;;;;;;6272270;22;20452;-92
2022/09/05 09:25:38;;;;;;;1.70;1.70;;;;;;;;;;6257959;22;20388;-91
2022/09/05 09:28:33;;;;;;;1.40;1.40;;;;;;;;;;6268078;22;20369;-90
2022/09/05 09:31:25;;;;;;;1.90;1.90;;;;;;;;;;6266058;22;20381;-91
2022/09/05 09:34:13;;;;;;;1.57;1.57;;;;;;;;;;6245905;22;20442;-89
2022/09/05 09:36:45;;;;;;;2.20;1.93;;;;;;;;;;6273334;22;20440;-88
2022/09/05 09:39:29;;;;;;;2.10;1.63;;;;;;;;;;6272290;22;20475;-91
2022/09/05 09:42:09;;;;;;;2.37;1.60;;;;;;;;;;6265451;22;20377;-91
2022/09/05 09:44:54;;;;;;;3.50;1.77;;;;;;;;;;6271605;22;20364;-90
2022/09/05 09:47:39;;;;;;;1.87;1.87;;;;;;;;;;6268201;22;20689;-90
2022/09/05 09:50:29;;;;;;;2.83;1.60;;;;;;;;;;6235495;23;20702;-90
2022/09/05 09:53:19;;;;;;;1.40;1.40;;;;;;;;;;6182029;23;20373;-90
2022/09/05 09:56:10;;;;;;;2.83;2.27;;;;;;;;;;6261537;23;20444;-93
2022/09/05 09:58:45;;;;;;;2.03;1.70;;;;;;;;;;6235097;23;20385;-89
2022/09/05 10:01:40;;;;;;;2.53;2.30;;;;;;;;;;6256605;23;20467;-91
2022/09/05 10:04:24;;;;;;;1.63;1.63;;;;;;;;;;6263838;23;20428;-90
2022/09/05 10:06:50;;;;;;;2.10;2.10;;;;;;;;;;6241238;22;20516;-88
2022/09/05 10:09:16;;;;;;;1.83;1.83;;;;;;;;;;6233358;23;20390;-91
2022/09/05 10:11:59;;;;;;;1.70;1.60;;;;;;;;;;6230903;23;20432;-90
2022/09/05 10:14:29;;;;;;;2.10;1.90;;;;;;;;;;6236825;22;20382;-93
2022/09/05 10:17:15;;;;;;;2.27;2.00;;;;;;;;;;6232433;23;20502;-88
2022/09/05 10:19:51;;;;;;;2.70;2.60;;;;;;;;;;6230269;23;20494;-91
2022/09/05 10:22:36;;;;;;;1.60;1.60;;;;;;;;;;6234325;23;20416;-94
2022/09/05 10:25:18;;;;;;;1.57;1.57;;;;;;;;;;6240798;23;20391;-93
2022/09/05 10:27:51;;;;;;;2.00;1.50;;;;;;;;;;6240772;23;20474;-91
2022/09/05 10:30:22;;;;;;;2.10;2.00;;;;;;;;;;6232820;23;20381;-92
2022/09/05 10:32:51;;;;;;;1.83;1.83;;;;;;;;;;6237815;23;20423;-93
2022/09/05 10:35:19;;;;;;;1.90;1.90;;;;;;;;;;6228980;23;20533;-92
2022/09/05 10:37:54;;;;;;;2.10;2.00;;;;;;;;;;6233271;23;20370;-94
2022/09/05 10:40:22;;;;;;;3.30;1.67;;;;;;;;;;6257055;23;20389;-94
2022/09/05 10:42:53;;;;;;;2.00;2.00;;;;;;;;;;6227518;22;20391;-93
2022/09/05 10:45:19;;;;;;;2.00;1.90;;;;;;;;;;6261476;22;20377;-94
2022/09/05 10:48:15;;;;;;;1.90;1.90;;;;;;;;;;6259404;22;20400;-92
2022/09/05 10:50:46;;;;;;;2.03;1.93;;;;;;;;;;6245959;23;20389;-96
2022/09/05 10:53:28;;;;;;;1.77;1.77;;;;;;;;;;6236181;23;20435;-89
2022/09/05 10:56:51;;;;;;;2.27;2.17;;;;;;;;;;6237818;23;20436;-93
2022/09/05 11:02:38;;;;;;;1.60;1.60;;;;;;;;;;6205645;23;20401;-90
2022/09/05 11:05:22;;;;;;;2.93;2.83;;;;;;;;;;6225994;23;20583;-91
2022/09/05 11:07:51;;;;;;;2.50;2.50;;;;;;;;;;6225702;23;20370;-94
2022/09/05 11:10:37;;;;;;;1.90;1.90;;;;;;;;;;6224725;23;20457;-95
2022/09/05 11:13:09;;;;;;;1.80;1.80;;;;;;;;;;6235811;23;20445;-93
2022/09/05 11:15:56;;;;;;;1.80;1.80;;;;;;;;;;6254141;23;20487;-88
2022/09/05 11:18:51;;;;;;;3.50;1.90;;;;;;;;;;6219087;23;20392;-94
2022/09/05 11:27:04;;;;;;;2.77;2.67;;;;;;;;;;6279863;22;20447;-91
2022/09/05 11:32:05;;;;;;;1.80;1.80;;;;;;;;;;6240767;22;20836;-89
2022/09/05 11:34:40;;;;;;;1.53;1.43;;;;;;;;;;6212713;23;20405;-91
2022/09/05 11:37:15;;;;;;;2.03;1.80;;;;;;;;;;6216837;23;20436;-91
2022/09/05 11:40:17;;;;;;;1.60;1.60;;;;;;;;;;6225608;23;20740;-91
2022/09/05 11:43:04;;;;;;;1.70;1.70;;;;;;;;;;6100620;23;20551;-92
2022/09/05 11:45:37;;;;;;;1.60;1.60;;;;;;;;;;6221861;23;20413;-93
2022/09/05 11:48:03;;;;;;;1.57;1.57;;;;;;;;;;6226869;22;20402;-91
2022/09/05 11:50:40;;;;;;;2.23;1.67;;;;;;;;;;6254968;22;20392;-93
2022/09/05 11:53:31;;;;;;;1.93;1.83;;;;;;;;;;6256830;22;20388;-91
2022/09/05 11:56:12;;;;;;;1.80;1.80;;;;;;;;;;6251649;22;20436;-94
2022/09/05 12:02:15;;;;;;;2.07;1.97;;;;;;;;;;6261578;22;20377;-94
2022/09/05 12:05:03;;;;;;;3.10;2.23;;;;;;;;;;6280017;22;20367;-92
2022/09/05 12:07:49;;;;;;;2.30;2.10;;;;;;;;;;6253478;22;20483;-93
2022/09/05 12:10:25;;;;;;;1.93;1.90;;;;;;;;;;6278218;22;20383;-89
2022/09/05 12:13:03;;;;;;;2.07;1.97;;;;;;;;;;6275654;22;20813;-90
2022/09/05 12:15:33;;;;;;;2.00;2.00;;;;;;;;;;6245536;22;20427;-90
2022/09/05 12:18:18;;;;;;;2.63;2.53;;;;;;;;;;6246601;22;20679;-90
2022/09/05 12:21:02;;;;;;;2.13;2.10;;;;;;;;;;6245735;22;20442;-90
2022/09/05 12:23:28;;;;;;;2.10;2.10;;;;;;;;;;6275771;22;20737;-89
2022/09/05 12:25:59;;;;;;;2.20;2.03;;;;;;;;;;6245749;22;21058;-89
2022/09/05 12:28:32;;;;;;;2.60;2.30;;;;;;;;;;6247692;22;20368;-90
2022/09/05 12:31:24;;;;;;;2.33;1.80;;;;;;;;;;6260464;22;20517;-87
2022/09/05 12:33:50;;;;;;;1.57;1.57;;;;;;;;;;6219550;22;21087;-89
2022/09/05 12:36:19;;;;;;;1.57;1.57;;;;;;;;;;6276042;22;20525;-90
2022/09/05 12:38:50;;;;;;;1.80;1.70;;;;;;;;;;6278054;22;20400;-89
2022/09/05 12:41:34;;;;;;;1.80;1.80;;;;;;;;;;6279167;22;20395;-90
2022/09/05 12:44:26;;;;;;;1.80;1.80;;;;;;;;;;6283814;22;20398;-90
2022/09/05 12:47:24;;;;;;;1.33;1.33;;;;;;;;;;6285682;22;20392;-90
2022/09/05 12:50:00;;;;;;;1.80;1.70;;;;;;;;;;6204366;22;20415;-91
2022/09/05 12:52:43;;;;;;;1.80;1.70;;;;;;;;;;6291229;22;20454;-88
2022/09/05 12:55:31;;;;;;;1.60;1.60;;;;;;;;;;6296123;22;20515;-93
2022/09/05 12:58:19;;;;;;;2.00;1.70;;;;;;;;;;6289473;22;20411;-90
2022/09/05 13:01:01;;;;;;;1.80;1.70;;;;;;;;;;6285072;22;20503;-91
2022/09/05 13:03:33;;;;;;;1.73;1.73;;;;;;;;;;6293841;22;20451;-91
2022/09/05 13:06:24;;;;;;;1.50;1.50;;;;;;;;;;6290227;22;20412;-93
2022/09/05 13:09:22;;;;;;;1.90;1.70;;;;;;;;;;6275622;22;20376;-93
2022/09/05 13:12:06;;;;;;;1.60;1.60;;;;;;;;;;6243373;22;20426;-93
2022/09/05 13:14:42;;;;;;;1.30;1.30;;;;;;;;;;6290862;22;20398;-91
2022/09/05 13:17:12;;;;;;;1.70;1.70;;;;;;;;;;6289396;22;20498;-92
2022/09/05 13:20:01;;;;;;;1.90;1.90;;;;;;;;;;6287028;22;20383;-94
2022/09/05 13:22:39;;;;;;;2.10;2.10;;;;;;;;;;6317275;22;20449;-93
2022/09/05 13:25:15;;;;;;;1.70;1.60;;;;;;;;;;6292428;22;20413;-92
2022/09/05 13:27:55;;;;;;;1.60;1.60;;;;;;;;;;6314591;22;20363;-91
2022/09/05 13:30:27;;;;;;;1.60;1.50;;;;;;;;;;6318573;22;20431;-91
2022/09/05 13:33:14;;;;;;;2.67;1.83;;;;;;;;;;6289681;22;20649;-91
2022/09/05 13:36:16;;;;;;;;;;;;;;;;;;;;;
2022/09/05 13:39:00;;;;;;;3.60;2.30;;;;;;;;;;6329444;22;20746;-93
2022/09/05 13:41:45;;;;;;;1.90;1.90;;;;;;;;;;6295759;22;20380;-90
2022/09/05 13:44:17;;;;;;;1.70;1.70;;;;;;;;;;6290945;22;20380;-90
2022/09/05 13:47:04;;;;;;;2.03;1.93;;;;;;;;;;6288075;22;20430;-92
2022/09/05 13:49:39;;;;;;;1.80;1.80;;;;;;;;;;6287628;22;20395;-94
2022/09/05 13:52:24;;;;;;;2.10;2.00;;;;;;;;;;6291794;22;20380;-96
2022/09/05 14:00:12;;;;;;;2.80;1.80;;;;;;;;;;6285162;22;20480;-89
2022/09/05 14:02:45;;;;;;;1.90;1.80;;;;;;;;;;6248304;22;20408;-91
2022/09/05 14:05:32;;;;;;;1.83;1.83;;;;;;;;;;6249847;22;20404;-89
2022/09/05 14:08:12;;;;;;;1.60;1.60;;;;;;;;;;6248760;22;20389;-87
2022/09/05 14:11:08;;;;;;;2.10;1.90;;;;;;;;;;6251122;22;20397;-93
2022/09/05 14:13:59;;;;;;;2.00;2.00;;;;;;;;;;6249659;22;20385;-92
2022/09/05 14:22:22;;;;;;;;;;;;;;;;;;;;;
2022/09/05 14:24:51;;;;;;;1.70;1.70;;;;;;;;;;6308309;22;20414;-91
2022/09/05 14:27:29;;;;;;;1.90;1.90;;;;;;;;;;6308047;22;20372;-92
2022/09/05 14:30:24;;;;;;;2.70;2.00;;;;;;;;;;6279959;22;20388;-92
2022/09/05 14:36:26;;;;;;;1.93;1.83;;;;;;;;;;6217363;23;20430;-93
2022/09/05 14:39:13;;;;;;;1.90;1.90;;;;;;;;;;6191822;23;20406;-91
2022/09/05 14:42:04;;;;;;;1.87;1.87;;;;;;;;;;6189985;23;20380;-87
2022/09/05 14:44:45;;;;;;;1.70;1.60;;;;;;;;;;6263386;22;20375;-91
2022/09/05 14:47:30;;;;;;;2.13;1.77;;;;;;;;;;6280043;22;20474;-90
2022/09/05 14:50:03;;;;;;;2.80;2.70;;;;;;;;;;6256697;22;20412;-94
2022/09/05 14:52:30;;;;;;;2.10;2.10;;;;;;;;;;6255224;22;20494;-90
2022/09/05 14:54:57;;;;;;;3.50;3.40;;;;;;;;;;6257605;22;20404;-89
2022/09/05 14:57:38;;;;;;;3.77;2.60;;;;;;;;;;6255430;22;20590;-90
2022/09/05 15:00:32;;;;;;;;;;;;;;;;;;;;;
2022/09/05 15:03:00;;;;;;;2.50;2.50;;;;;;;;;;6288815;22;20373;-89
2022/09/05 15:05:29;;;;;;;4.00;3.70;;;;;;;;;;6264572;22;20414;-89
2022/09/05 15:08:06;;;;;;;2.37;2.27;;;;;;;;;;6261010;22;20392;-89
2022/09/05 15:10:37;;;;;;;3.27;2.70;;;;;;;;;;6261406;22;20369;-88
2022/09/05 15:13:12;;;;;;;2.73;2.60;;;;;;;;;;6257714;22;20465;-91
2022/09/05 15:15:41;;;;;;;2.77;2.60;;;;;;;;;;6261860;22;20423;-90
2022/09/05 15:18:08;;;;;;;2.80;2.70;;;;;;;;;;6253197;22;20442;-91
2022/09/05 15:20:36;;;;;;;3.10;3.00;;;;;;;;;;6280240;22;20391;-90
2022/09/05 15:23:04;;;;;;;2.50;2.50;;;;;;;;;;6253386;22;20403;-88
2022/09/05 15:25:44;;;;;;;3.10;1.97;;;;;;;;;;6259891;22;20381;-91
2022/09/05 15:28:24;;;;;;;2.53;2.30;;;;;;;;;;6259536;22;20440;-90
2022/09/05 15:30:55;;;;;;;2.17;2.17;;;;;;;;;;6259048;22;20400;-88
2022/09/05 15:33:27;;;;;;;2.00;2.00;;;;;;;;;;6262276;22;20415;-91
2022/09/05 15:35:57;;;;;;;2.27;2.03;;;;;;;;;;6259573;22;20420;-91
2022/09/05 15:38:37;;;;;;;5.10;2.10;;;;;;;;;;6261199;22;20397;-91
2022/09/05 15:41:09;;;;;;;2.60;2.50;;;;;;;;;;6247392;22;20395;-90
2022/09/05 15:43:50;;;;;;;2.43;2.43;;;;;;;;;;6252625;22;20373;-93
2022/09/05 15:46:27;;;;;;;2.73;2.63;;;;;;;;;;6252606;22;20436;-92
2022/09/05 15:48:55;;;;;;;3.07;2.93;;;;;;;;;;6251353;22;20404;-90
2022/09/05 15:51:33;;;;;;;3.70;2.73;;;;;;;;;;6277430;22;20373;-93
2022/09/05 15:54:04;;;;;;;3.27;2.97;;;;;;;;;;6250563;22;20380;-91
2022/09/05 15:56:31;;;;;;;2.80;2.70;;;;;;;;;;6248819;22;20986;-90
2022/09/05 15:59:19;;;;;;;2.60;2.40;;;;;;;;;;6251529;22;20400;-92
2022/09/05 16:01:51;;;;;;;7.20;6.70;;;;;;;;;;6255585;22;20408;-92
2022/09/05 16:04:21;;;;;;;2.87;2.77;;;;;;;;;;6270306;22;20404;-93
2022/09/05 16:06:53;;;;;;;3.03;2.93;;;;;;;;;;6261561;22;20453;-94
2022/09/05 16:09:40;;;;;;;3.30;3.20;;;;;;;;;;6258786;22;20380;-95
2022/09/05 16:12:10;;;;;;;2.83;2.83;;;;;;;;;;6290172;22;20340;-95
2022/09/05 16:14:36;;;;;;;5.30;4.93;;;;;;;;;;6260455;22;20381;-93
2022/09/05 16:17:10;;;;;;;4.93;4.57;;;;;;;;;;6262018;22;20428;-94
2022/09/05 16:19:55;;;;;;;4.90;4.70;;;;;;;;;;6263619;22;20448;-94
2022/09/05 16:22:33;;;;;;;4.47;4.37;;;;;;;;;;6255150;22;20388;-94
2022/09/05 16:25:05;;;;;;;5.70;5.20;;;;;;;;;;6257622;22;20373;-94
2022/09/05 16:27:36;;;;;;;8.33;7.00;;;;;;;;;;6285794;22;20825;-91
2022/09/05 16:30:04;;;;;;;8.17;7.63;;;;;;;;;;6261208;22;20385;-94
2022/09/05 16:32:42;;;;;;;8.40;7.73;;;;;;;;;;6258391;22;20369;-93
2022/09/05 16:35:12;;;;;;;10.03;7.07;;;;;;;;;;6264797;22;20357;-92
2022/09/05 16:37:57;;;;;;;3.67;3.47;;;;;;;;;;6284329;22;20369;-92
2022/09/05 16:41:02;;;;;;;3.60;3.50;;;;;;;;;;6265841;22;20487;-94
2022/09/05 16:43:31;;;;;;;3.87;3.57;;;;;;;;;;6165678;23;20521;-94
2022/09/05 16:46:02;;;;;;;2.97;2.87;;;;;;;;;;6167427;23;21037;-94
2022/09/05 16:48:29;;;;;;;4.60;3.40;;;;;;;;;;6169573;23;20479;-91
2022/09/05 16:51:37;;;;;;;;;;;;;;;;;;;;;
2022/09/05 16:54:30;;;;;;;4.30;4.10;;;;;;;;;;6192896;22;20377;-94
2022/09/05 16:57:16;;;;;;;6.47;5.87;;;;;;;;;;6245927;22;20536;-95
2022/09/05 16:59:51;;;;;;;4.97;4.67;;;;;;;;;;6222159;23;20931;-94
2022/09/05 17:02:47;;;;;;;;;;;;;;;;;;;;;
2022/09/05 17:05:33;;;;;;;4.87;4.50;;;;;;;;;;6259950;23;20650;-94
2022/09/05 17:08:05;;;;;;;4.00;3.90;;;;;;;;;;6226754;23;20393;-91
2022/09/05 17:10:45;;;;;;;3.80;3.67;;;;;;;;;;6230068;23;20370;-93
2022/09/05 17:13:31;;;;;;;8.50;6.10;;;;;;;;;;6228654;23;20409;-94
2022/09/05 17:15:59;;;;;;;8.47;7.63;;;;;;;;;;6217903;23;20502;-94
2022/09/05 17:18:30;;;;;;;10.90;9.80;;;;;;;;;;6215210;23;20429;-93
2022/09/05 17:20:57;;;;;;;12.37;11.17;;;;;;;;;;6217999;23;20721;-94
2022/09/05 17:23:31;;;;;;;13.27;10.70;;;;;;;;;;6220292;23;20402;-93
2022/09/05 17:26:05;;;;;;;10.13;9.23;;;;;;;;;;6219724;23;20415;-92
2022/09/05 17:29:01;;;;;;;5.47;5.07;;;;;;;;;;6221473;23;20401;-93
2022/09/05 17:31:36;;;;;;;4.43;4.23;;;;;;;;;;6223126;23;20455;-94
2022/09/05 17:34:17;;;;;;;4.67;4.27;;;;;;;;;;6226959;23;20452;-92
2022/09/05 17:36:52;;;;;;;5.07;4.27;;;;;;;;;;6232980;23;20444;-92
2022/09/05 17:39:37;;;;;;;5.13;4.83;;;;;;;;;;6238248;23;20353;-93
2022/09/05 17:42:16;;;;;;;4.20;3.80;;;;;;;;;;6239648;22;20804;-92
2022/09/05 17:45:11;;;;;;;4.37;4.00;;;;;;;;;;6238011;23;20424;-90
2022/09/05 17:47:52;;;;;;;5.23;4.93;;;;;;;;;;6231780;23;20400;-93
2022/09/05 17:50:38;;;;;;;5.57;5.27;;;;;;;;;;6202349;23;20430;-93
2022/09/05 17:53:06;;;;;;;4.70;4.40;;;;;;;;;;6207179;23;20394;-93
2022/09/05 17:55:46;;;;;;;8.03;5.90;;;;;;;;;;6235356;23;20416;-94
2022/09/05 17:58:21;;;;;;;7.83;7.20;;;;;;;;;;6237892;22;20417;-93
2022/09/05 18:01:03;;;;;;;7.47;6.60;;;;;;;;;;6207394;22;20497;-91
2022/09/05 18:03:44;;;;;;;9.47;8.60;;;;;;;;;;6198827;23;20392;-94
2022/09/05 18:06:19;;;;;;;8.40;7.70;;;;;;;;;;6204926;23;20378;-93
2022/09/05 18:08:45;;;;;;;9.90;8.97;;;;;;;;;;6202161;23;20870;-92
2022/09/05 18:11:53;;;;;;;12.93;11.83;;;;;;;;;;6198452;23;20409;-92
2022/09/05 18:14:54;;;;;;;7.60;7.20;;;;;;;;;;6186686;23;20398;-93
2022/09/05 18:17:39;;;;;;;11.10;7.43;;;;;;;;;;6203720;23;20405;-93
2022/09/05 18:20:11;;;;;;;12.33;9.90;;;;;;;;;;6197725;23;20452;-94
2022/09/05 18:22:40;;;;;;;5.83;5.53;;;;;;;;;;6190766;23;20398;-93
2022/09/05 18:25:15;;;;;;;6.67;6.13;;;;;;;;;;6196726;23;20438;-92
2022/09/05 18:27:44;;;;;;;5.47;5.07;;;;;;;;;;6219434;23;20362;-92
2022/09/05 18:30:32;;;;;;;9.80;9.10;;;;;;;;;;6198473;23;20421;-93
2022/09/05 18:33:00;;;;;;;4.37;4.07;;;;;;;;;;6191625;23;20476;-93
2022/09/05 18:35:30;;;;;;;4.13;4.00;;;;;;;;;;6198822;23;20422;-92
2022/09/05 18:38:01;;;;;;;4.40;4.00;;;;;;;;;;6193307;23;20410;-92
2022/09/05 18:40:37;;;;;;;4.50;4.30;;;;;;;;;;6192178;23;20402;-93
2022/09/05 18:43:13;;;;;;;5.83;3.23;;;;;;;;;;6186812;23;20394;-94
2022/09/05 18:45:44;;;;;;;5.10;4.60;;;;;;;;;;6220042;23;20538;-93
2022/09/05 18:48:11;;;;;;;5.40;4.90;;;;;;;;;;6191838;23;20402;-92
2022/09/05 18:50:41;;;;;;;4.63;4.50;;;;;;;;;;6189527;23;20382;-93
2022/09/05 18:53:09;;;;;;;4.77;4.37;;;;;;;;;;6188638;23;20724;-92
2022/09/05 18:55:36;;;;;;;4.17;3.73;;;;;;;;;;6190513;23;20441;-94
2022/09/05 18:58:07;;;;;;;4.47;4.00;;;;;;;;;;6188241;23;20442;-94
2022/09/05 19:00:33;;;;;;;5.10;4.63;;;;;;;;;;6189354;23;20390;-93
2022/09/05 19:03:05;;;;;;;8.50;7.80;;;;;;;;;;6190494;23;20409;-92
2022/09/05 19:05:46;;;;;;;4.30;3.90;;;;;;;;;;6188758;23;20383;-93
2022/09/05 19:08:35;;;;;;;5.73;4.30;;;;;;;;;;6188686;23;20382;-94
2022/09/05 19:11:03;;;;;;;3.53;3.43;;;;;;;;;;6206419;23;20371;-93
2022/09/05 19:13:36;;;;;;;4.03;3.80;;;;;;;;;;6204595;23;20441;-93
2022/09/05 19:16:06;;;;;;;4.70;3.90;;;;;;;;;;6209138;23;20414;-93
2022/09/05 19:18:33;;;;;;;4.63;4.43;;;;;;;;;;6200316;23;20386;-93
2022/09/05 19:21:14;;;;;;;4.83;4.43;;;;;;;;;;6195250;23;20397;-93
2022/09/05 19:23:50;;;;;;;3.40;3.20;;;;;;;;;;6190784;23;20390;-94
2022/09/05 19:26:20;;;;;;;3.03;2.83;;;;;;;;;;6230649;22;20350;-93
2022/09/05 19:28:55;;;;;;;3.30;3.10;;;;;;;;;;6233074;22;20399;-93
2022/09/05 19:31:30;;;;;;;3.77;3.60;;;;;;;;;;6195111;23;20370;-92
2022/09/05 19:34:35;;;;;;;3.87;3.57;;;;;;;;;;6198831;23;20424;-93
2022/09/05 19:37:02;;;;;;;3.70;3.40;;;;;;;;;;6161464;23;20837;-93
2022/09/05 19:39:39;;;;;;;4.00;3.90;;;;;;;;;;6195171;23;20428;-93
2022/09/05 19:42:05;;;;;;;4.13;3.87;;;;;;;;;;6196320;23;20379;-94
2022/09/05 19:44:35;;;;;;;3.20;3.00;;;;;;;;;;6204543;22;20470;-93
2022/09/05 19:47:01;;;;;;;6.80;3.80;;;;;;;;;;6200497;23;20471;-92
2022/09/05 19:49:28;;;;;;;3.93;3.60;;;;;;;;;;6201097;23;20418;-93
2022/09/05 19:52:13;;;;;;;4.93;3.93;;;;;;;;;;6200599;23;20453;-93
2022/09/05 19:54:41;;;;;;;4.70;4.50;;;;;;;;;;6199278;23;20684;-91
2022/09/05 20:02:32;;;;;;;4.00;3.70;;;;;;;;;;6251541;23;20932;-91
2022/09/05 20:04:59;;;;;;;3.77;3.57;;;;;;;;;;6223885;23;20477;-91
2022/09/05 20:07:27;;;;;;;3.50;3.40;;;;;;;;;;6219016;23;20394;-91
2022/09/05 20:09:54;;;;;;;3.80;3.60;;;;;;;;;;6220164;23;20425;-90
2022/09/05 20:12:37;;;;;;;3.67;3.47;;;;;;;;;;6222533;23;20405;-91
2022/09/05 20:15:22;;;;;;;4.20;3.90;;;;;;;;;;6221303;23;20474;-92
2022/09/05 20:17:52;;;;;;;4.97;4.50;;;;;;;;;;6218615;23;21194;-94
2022/09/05 20:20:23;;;;;;;3.93;3.83;;;;;;;;;;6219047;23;20385;-92
2022/09/05 20:22:51;;;;;;;4.43;3.50;;;;;;;;;;6216936;23;20459;-92
2022/09/05 20:25:35;;;;;;;4.80;4.20;;;;;;;;;;6220619;23;20724;-92
2022/09/05 20:28:03;;;;;;;3.73;3.67;;;;;;;;;;6242458;23;20381;-91
2022/09/05 20:30:31;;;;;;;3.90;3.80;;;;;;;;;;6217828;23;20432;-91
2022/09/05 20:33:04;;;;;;;3.77;3.40;;;;;;;;;;6215064;23;20405;-91
2022/09/05 20:36:16;;;;;;;3.80;3.80;;;;;;;;;;6244467;23;20409;-92
2022/09/05 20:38:26;;;;;;;3.60;3.40;;;;;;;;;;6239711;23;20866;-91
2022/09/05 20:40:55;;;;;;;4.37;4.10;;;;;;;;;;6217109;23;20480;-91
2022/09/05 20:43:41;;;;;;;3.80;3.70;;;;;;;;;;6220284;23;20405;-91
2022/09/05 20:46:07;;;;;;;3.80;3.67;;;;;;;;;;6216582;23;20385;-91
2022/09/05 20:48:34;;;;;;;4.20;4.00;;;;;;;;;;6214948;23;20492;-91
2022/09/05 20:51:00;;;;;;;4.47;4.07;;;;;;;;;;6216129;23;20885;-91
2022/09/05 20:53:28;;;;;;;3.00;2.90;;;;;;;;;;6214212;23;20436;-92
2022/09/05 20:56:08;;;;;;;3.60;3.50;;;;;;;;;;6215179;23;20806;-93
2022/09/05 20:58:36;;;;;;;4.00;3.90;;;;;;;;;;6239913;23;20400;-91
2022/09/05 21:01:13;;;;;;;3.47;3.47;;;;;;;;;;6210451;23;20421;-91
2022/09/05 21:03:52;;;;;;;3.47;3.27;;;;;;;;;;6215294;23;20443;-91
2022/09/05 21:06:21;;;;;;;4.33;3.90;;;;;;;;;;6217070;23;20377;-91
2022/09/05 21:08:48;;;;;;;3.77;3.57;;;;;;;;;;6246058;23;20411;-90
2022/09/05 21:11:14;;;;;;;3.83;3.50;;;;;;;;;;6231887;23;20934;-86
2022/09/05 21:13:51;;;;;;;4.13;3.93;;;;;;;;;;6235945;23;20377;-91
2022/09/05 21:16:21;;;;;;;4.67;4.00;;;;;;;;;;6266039;23;20412;-91
2022/09/05 21:18:47;;;;;;;4.57;4.43;;;;;;;;;;6258215;23;20849;-92
2022/09/05 21:21:30;;;;;;;4.00;3.80;;;;;;;;;;6222666;23;20394;-91
2022/09/05 21:24:06;;;;;;;4.10;4.00;;;;;;;;;;6247300;23;20459;-91
2022/09/05 21:26:33;;;;;;;4.63;4.33;;;;;;;;;;6218324;23;20361;-91
2022/09/05 21:29:10;;;;;;;7.03;3.90;;;;;;;;;;6245083;23;20460;-91
2022/09/05 21:31:44;;;;;;;3.77;3.57;;;;;;;;;;6218767;23;20420;-91
2022/09/05 21:34:31;;;;;;;3.60;3.60;;;;;;;;;;6215813;23;20413;-91
2022/09/05 21:37:04;;;;;;;4.07;3.97;;;;;;;;;;6218179;23;20817;-91
2022/09/05 21:39:31;;;;;;;3.70;3.60;;;;;;;;;;6245197;23;20830;-89
2022/09/05 21:41:57;;;;;;;4.20;3.90;;;;;;;;;;6221302;23;20422;-90
2022/09/05 21:44:25;;;;;;;4.43;4.33;;;;;;;;;;6214031;23;20459;-90
2022/09/05 21:46:52;;;;;;;4.00;3.70;;;;;;;;;;6216951;23;20885;-90
2022/09/05 21:49:18;;;;;;;5.13;4.90;;;;;;;;;;6216167;23;20413;-91
2022/09/05 21:51:49;;;;;;;4.50;4.30;;;;;;;;;;6215756;23;20439;-91
2022/09/05 21:54:17;;;;;;;3.70;3.50;;;;;;;;;;6240231;23;20477;-91
2022/09/05 21:56:47;;;;;;;4.20;4.10;;;;;;;;;;6217337;23;20425;-91
2022/09/05 21:59:16;;;;;;;4.60;4.40;;;;;;;;;;6242339;23;20836;-90
2022/09/05 22:01:42;;;;;;;4.30;4.20;;;;;;;;;;6211154;23;20441;-90
2022/09/05 22:04:08;;;;;;;3.90;3.80;;;;;;;;;;6220619;23;20421;-90
2022/09/05 22:06:34;;;;;;;5.50;5.30;;;;;;;;;;6219697;23;20393;-90